createdAt,value
2018-11-05T00:00:29.088Z,96134.16
2018-11-05T00:02:57.838Z,96130.64
2018-11-05T00:05:26.499Z,96127.45
2018-11-05T00:07:55.158Z,96130.33
2018-11-05T00:10:23.805Z,96124.50
2018-11-05T00:12:52.449Z,96128.95
2018-11-05T00:15:21.479Z,96124.30
2018-11-05T00:17:50.227Z,96123.80
2018-11-05T00:20:18.914Z,96120.35
2018-11-05T00:22:47.562Z,96128.52
2018-11-05T00:25:16.218Z,96122.34
2018-11-05T00:27:44.865Z,96128.78
2018-11-05T00:30:14.478Z,96117.20
2018-11-05T00:32:43.679Z,96123.41
2018-11-05T00:35:12.494Z,96115.91
2018-11-05T00:37:41.116Z,96117.78
2018-11-05T00:40:12.566Z,96115.86
2018-11-05T00:42:41.635Z,96118.12
2018-11-05T00:45:11.305Z,96117.02
2018-11-05T00:47:40.220Z,96115.44
2018-11-05T00:50:11.935Z,96112.48
2018-11-05T00:52:40.620Z,96113.33
2018-11-05T00:55:10.081Z,96111.41
2018-11-05T00:57:38.738Z,96106.28
2018-11-05T01:00:13.621Z,96102.09
2018-11-05T01:02:42.544Z,96104.00
2018-11-05T01:05:12.473Z,96095.61
2018-11-05T01:07:41.707Z,96101.60
2018-11-05T01:10:11.640Z,96101.06
2018-11-05T01:12:40.300Z,96093.89
2018-11-05T01:15:11.617Z,96099.83
2018-11-05T01:17:40.444Z,96097.48
2018-11-05T01:20:10.741Z,96094.91
2018-11-05T01:22:39.546Z,96089.74
2018-11-05T01:25:08.329Z,96082.96
2018-11-05T01:27:37.016Z,96083.30
2018-11-05T01:30:12.160Z,96082.80
2018-11-05T01:32:41.285Z,96084.98
2018-11-05T01:35:11.552Z,96077.51
2018-11-05T01:37:40.227Z,96070.57
2018-11-05T01:40:12.229Z,96072.38
2018-11-05T01:42:40.932Z,96077.74
2018-11-05T01:45:10.922Z,96074.98
2018-11-05T01:47:39.809Z,96080.05
2018-11-05T01:50:10.161Z,96070.88
2018-11-05T01:52:39.081Z,96069.20
2018-11-05T01:55:08.849Z,96071.80
2018-11-05T01:57:37.831Z,96073.15
2018-11-05T02:00:11.963Z,96069.66
2018-11-05T02:02:40.624Z,96056.47
2018-11-05T02:05:10.522Z,96052.70
2018-11-05T02:07:39.472Z,96059.87
2018-11-05T02:12:53.335Z,96053.85
2018-11-05T02:15:21.930Z,96052.77
2018-11-05T02:17:50.617Z,96052.02
2018-11-05T02:20:19.311Z,96051.17
2018-11-05T02:22:47.983Z,96047.91
2018-11-05T02:25:16.649Z,96052.28
2018-11-05T02:27:45.314Z,96050.36
2018-11-05T02:30:29.887Z,96052.52
2018-11-05T02:32:58.574Z,96054.20
2018-11-05T02:35:27.368Z,96053.70
2018-11-05T02:37:55.993Z,96065.24
2018-11-05T02:40:24.635Z,96056.69
2018-11-05T02:42:53.287Z,96055.84
2018-11-05T02:45:21.916Z,96057.73
2018-11-05T02:47:50.540Z,96048.67
2018-11-05T02:50:19.159Z,96051.59
2018-11-05T02:52:48.273Z,96049.25
2018-11-05T02:55:16.914Z,96046.03
2018-11-05T02:57:45.549Z,96049.22
2018-11-05T03:00:15.653Z,96055.16
2018-11-05T03:02:44.547Z,96048.22
2018-11-05T03:05:14.580Z,96055.20
2018-11-05T03:07:43.925Z,96051.48
2018-11-05T03:10:13.024Z,96053.36
2018-11-05T03:12:42.225Z,96049.38
2018-11-05T03:15:12.666Z,96056.62
2018-11-05T03:17:41.357Z,96049.83
2018-11-05T03:20:11.281Z,96049.83
2018-11-05T03:22:40.647Z,96046.65
2018-11-05T03:25:09.586Z,96054.13
2018-11-05T03:27:38.649Z,96050.59
2018-11-05T03:30:14.281Z,96050.30
2018-11-05T03:32:42.983Z,96056.23
2018-11-05T03:35:12.652Z,96053.28
2018-11-05T03:37:42.078Z,96058.39
2018-11-05T03:40:12.011Z,96058.11
2018-11-05T03:42:41.357Z,96058.57
2018-11-05T03:45:11.381Z,96063.13
2018-11-05T03:47:40.117Z,96066.36
2018-11-05T03:50:10.972Z,96055.08
2018-11-05T03:52:39.679Z,96062.80
2018-11-05T03:55:08.748Z,96059.83
2018-11-05T03:57:37.477Z,96063.90
2018-11-05T04:00:10.907Z,96063.67
2018-11-05T04:02:39.578Z,96070.47
2018-11-05T04:05:08.614Z,96069.47
2018-11-05T04:07:37.323Z,96068.63
2018-11-05T04:10:06.617Z,96065.86
2018-11-05T04:12:35.258Z,96065.82
2018-11-05T04:15:04.014Z,96071.07
2018-11-05T04:17:32.704Z,96065.54
2018-11-05T04:20:01.373Z,96071.55
2018-11-05T04:22:30.026Z,96075.91
2018-11-05T04:24:58.629Z,96075.52
2018-11-05T04:27:27.296Z,96075.48
2018-11-05T04:29:55.918Z,96079.81
2018-11-05T04:32:24.583Z,96072.79
2018-11-05T04:34:53.250Z,96081.95
2018-11-05T04:37:21.891Z,96072.64
2018-11-05T04:39:50.535Z,96070.35
2018-11-05T04:42:19.202Z,96081.72
2018-11-05T04:44:47.879Z,96076.34
2018-11-05T04:47:16.613Z,96070.93
2018-11-05T04:49:45.382Z,96069.37
2018-11-05T04:52:14.071Z,96081.04
2018-11-05T04:54:42.754Z,96072.79
2018-11-05T04:57:11.407Z,96068.30
2018-11-05T04:59:40.153Z,96075.05
2018-11-05T05:02:08.825Z,96080.97
2018-11-05T05:04:37.502Z,96080.74
2018-11-05T05:07:06.223Z,96079.12
2018-11-05T05:09:34.852Z,96080.20
2018-11-05T05:12:03.529Z,96080.47
2018-11-05T05:14:32.221Z,96085.84
2018-11-05T05:17:00.925Z,96087.91
2018-11-05T05:19:29.595Z,96089.75
2018-11-05T05:21:58.265Z,96091.28
2018-11-05T05:24:26.986Z,96088.47
2018-11-05T05:26:55.989Z,96088.63
2018-11-05T05:29:24.687Z,96088.73
2018-11-05T05:31:53.334Z,96093.52
2018-11-05T05:34:22.036Z,96089.97
2018-11-05T05:36:50.673Z,96093.47
2018-11-05T05:39:19.308Z,96093.09
2018-11-05T05:41:47.959Z,96092.22
2018-11-05T05:44:16.636Z,96091.44
2018-11-05T05:46:45.285Z,96099.51
2018-11-05T05:49:13.995Z,96104.39
2018-11-05T05:51:42.919Z,96107.75
2018-11-05T05:54:11.561Z,96107.88
2018-11-05T05:56:40.231Z,96099.17
2018-11-05T05:59:08.892Z,96101.61
2018-11-05T06:01:37.564Z,96105.23
2018-11-05T06:04:06.246Z,96104.83
2018-11-05T06:06:34.926Z,96111.45
2018-11-05T06:09:03.702Z,96110.73
2018-11-05T06:11:32.380Z,96119.41
2018-11-05T06:14:01.097Z,96110.61
2018-11-05T06:16:29.818Z,96114.84
2018-11-05T06:18:58.483Z,96116.86
2018-11-05T06:21:27.197Z,96117.48
2018-11-05T06:23:55.825Z,96125.16
2018-11-05T06:26:24.458Z,96123.56
2018-11-05T06:28:53.137Z,96129.56
2018-11-05T06:31:21.835Z,96128.45
2018-11-05T06:33:50.542Z,96131.62
2018-11-05T06:36:19.227Z,96124.47
2018-11-05T06:38:47.872Z,96127.91
2018-11-05T06:41:16.616Z,96126.77
2018-11-05T06:43:45.257Z,96137.32
2018-11-05T06:46:13.919Z,96130.05
2018-11-05T06:48:42.592Z,96129.16
2018-11-05T06:51:11.235Z,96132.86
2018-11-05T06:53:39.906Z,96132.98
2018-11-05T06:56:08.661Z,96133.25
2018-11-05T06:58:37.341Z,96133.53
2018-11-05T07:01:06.229Z,96133.95
2018-11-05T07:03:34.898Z,96137.33
2018-11-05T07:06:03.731Z,96135.33
2018-11-05T07:08:32.486Z,96130.13
2018-11-05T07:11:01.141Z,96129.95
2018-11-05T07:13:29.773Z,96136.29
2018-11-05T07:15:58.440Z,96136.83
2018-11-05T07:18:27.126Z,96131.63
2018-11-05T07:20:55.845Z,96134.38
2018-11-05T07:23:24.530Z,96133.89
2018-11-05T07:25:53.255Z,96136.70
2018-11-05T07:28:21.944Z,96134.00
2018-11-05T07:30:50.578Z,96135.03
2018-11-05T07:33:19.233Z,96124.55
2018-11-05T07:35:47.854Z,95972.59
2018-11-05T07:38:16.577Z,96139.25
2018-11-05T07:40:45.272Z,96138.37
2018-11-05T07:43:13.972Z,96136.64
2018-11-05T07:45:42.720Z,96130.81
2018-11-05T07:48:11.382Z,96134.78
2018-11-05T07:50:40.096Z,96137.95
2018-11-05T07:53:08.773Z,96146.88
2018-11-05T07:55:37.473Z,96142.04
2018-11-05T07:58:06.148Z,96140.20
2018-11-05T08:00:40.097Z,96137.05
2018-11-05T08:03:10.241Z,96137.30
2018-11-05T08:05:38.954Z,96141.27
2018-11-05T08:08:07.611Z,96135.47
2018-11-05T08:10:36.253Z,96153.01
2018-11-05T08:13:04.897Z,96138.88
2018-11-05T08:15:33.530Z,96141.46
2018-11-05T08:18:02.219Z,96146.58
2018-11-05T08:20:30.868Z,96139.55
2018-11-05T08:22:59.564Z,96146.32
2018-11-05T08:25:28.266Z,96142.02
2018-11-05T08:27:56.956Z,96131.84
2018-11-05T08:30:26.347Z,96130.83
2018-11-05T08:32:55.439Z,96129.70
2018-11-05T08:35:24.079Z,96129.97
2018-11-05T08:37:53.182Z,96122.45
2018-11-05T08:40:23.781Z,96125.98
2018-11-05T08:42:53.150Z,96125.53
2018-11-05T08:45:23.155Z,96124.62
2018-11-05T08:47:51.798Z,96135.86
2018-11-05T08:50:21.556Z,96125.27
2018-11-05T08:52:50.120Z,96120.98
2018-11-05T08:55:21.238Z,96123.50
2018-11-05T08:57:50.048Z,96124.64
2018-11-05T09:00:24.319Z,96128.64
2018-11-05T09:02:53.502Z,96117.12
2018-11-05T09:05:22.334Z,96111.75
2018-11-05T09:07:51.990Z,96113.30
2018-11-05T09:10:20.929Z,96125.16
2018-11-05T09:12:49.465Z,96116.33
2018-11-05T09:15:19.462Z,96107.88
2018-11-05T09:17:48.468Z,96111.45
2018-11-05T09:20:18.094Z,96107.55
2018-11-05T09:22:47.210Z,96111.96
2018-11-05T09:25:16.540Z,96099.39
2018-11-05T09:27:45.195Z,96105.53
2018-11-05T09:30:18.929Z,96102.62
2018-11-05T09:32:47.880Z,96089.01
2018-11-05T09:35:16.585Z,96091.45
2018-11-05T09:37:45.325Z,96102.22
2018-11-05T09:40:19.182Z,96093.11
2018-11-05T09:42:48.326Z,96096.98
2018-11-05T09:45:20.111Z,96084.87
2018-11-05T09:47:48.757Z,96078.36
2018-11-05T09:50:18.198Z,96078.45
2018-11-05T09:52:46.899Z,96079.72
2018-11-05T09:55:16.033Z,96071.94
2018-11-05T09:57:44.771Z,96071.16
2018-11-05T10:00:17.581Z,96073.32
2018-11-05T10:02:51.533Z,96066.49
2018-11-05T10:05:20.362Z,96064.51
2018-11-05T10:07:48.925Z,96065.12
2018-11-05T10:10:18.257Z,96059.36
2018-11-05T10:12:46.878Z,96052.87
2018-11-05T10:15:16.621Z,96048.83
2018-11-05T10:17:45.327Z,96051.80
2018-11-05T10:20:16.189Z,96044.03
2018-11-05T10:22:45.517Z,96043.93
2018-11-05T10:25:17.320Z,96035.52
2018-11-05T10:27:46.331Z,96030.39
2018-11-05T10:30:17.400Z,96029.98
2018-11-05T10:32:46.176Z,96023.89
2018-11-05T10:35:15.700Z,96021.42
2018-11-05T10:37:44.456Z,96013.01
2018-11-05T10:40:16.100Z,96012.39
2018-11-05T10:42:45.567Z,96028.49
2018-11-05T10:45:15.500Z,96002.28
2018-11-05T10:47:44.181Z,96010.95
2018-11-05T10:50:14.079Z,95997.49
2018-11-05T10:52:43.373Z,95996.02
2018-11-05T10:55:11.986Z,95999.63
2018-11-05T10:57:41.489Z,96003.29
2018-11-05T11:00:18.642Z,95995.44
2018-11-05T11:03:50.229Z,95992.00
2018-11-05T11:06:18.883Z,95995.84
2018-11-05T11:08:47.633Z,95980.02
2018-11-05T11:11:16.311Z,95983.91
2018-11-05T11:13:45.090Z,95974.85
2018-11-05T11:16:13.758Z,95969.72
2018-11-05T11:18:42.465Z,95969.85
2018-11-05T11:21:11.122Z,95969.22
2018-11-05T11:23:39.773Z,95958.50
2018-11-05T11:26:08.418Z,95962.69
2018-11-05T11:28:37.123Z,95953.45
2018-11-05T11:31:05.849Z,95955.70
2018-11-05T11:33:34.559Z,95964.35
2018-11-05T11:36:03.213Z,95951.38
2018-11-05T11:38:31.935Z,95945.91
2018-11-05T11:41:00.641Z,95937.09
2018-11-05T11:43:29.350Z,95940.15
2018-11-05T11:45:58.016Z,95934.17
2018-11-05T11:48:26.669Z,95937.40
2018-11-05T11:50:55.310Z,95931.72
2018-11-05T11:53:24.944Z,95934.34
2018-11-05T11:55:53.566Z,95934.53
2018-11-05T11:58:22.245Z,95928.51
2018-11-05T12:00:50.934Z,95924.59
2018-11-05T12:03:19.525Z,95923.53
2018-11-05T12:05:48.162Z,95918.02
2018-11-05T12:08:16.769Z,95915.14
2018-11-05T12:10:45.446Z,95909.71
2018-11-05T12:13:14.076Z,95902.77
2018-11-05T12:15:42.706Z,95901.11
2018-11-05T12:18:11.390Z,95892.37
2018-11-05T12:20:40.051Z,95890.21
2018-11-05T12:23:08.677Z,95888.84
2018-11-05T12:25:37.275Z,95882.21
2018-11-05T12:28:06.257Z,95881.95
2018-11-05T12:30:34.897Z,95888.27
2018-11-05T12:33:03.644Z,95873.55
2018-11-05T12:35:32.272Z,95872.48
2018-11-05T12:38:00.924Z,95863.79
2018-11-05T12:40:29.621Z,95862.55
2018-11-05T12:42:58.317Z,95862.47
2018-11-05T12:45:26.980Z,95854.16
2018-11-05T12:47:55.772Z,95851.50
2018-11-05T12:50:24.722Z,95855.80
2018-11-05T12:52:54.724Z,95845.38
2018-11-05T12:55:23.453Z,95842.62
2018-11-05T12:57:52.103Z,95838.29
2018-11-05T13:00:22.372Z,95843.41
2018-11-05T13:02:56.278Z,95840.09
2018-11-05T13:05:26.196Z,95841.72
2018-11-05T13:07:54.877Z,95831.91
2018-11-05T13:10:23.646Z,95839.78
2018-11-05T13:12:52.359Z,95836.86
2018-11-05T13:15:21.073Z,95835.69
2018-11-05T13:17:49.836Z,95826.84
2018-11-05T13:20:20.671Z,95833.03
2018-11-05T13:22:49.370Z,95829.50
2018-11-05T13:25:18.097Z,95825.40
2018-11-05T13:27:48.788Z,95823.44
2018-11-05T13:30:17.697Z,95830.84
2018-11-05T13:32:46.837Z,95827.26
2018-11-05T13:35:17.616Z,95822.17
2018-11-05T13:37:46.763Z,95812.38
2018-11-05T13:40:19.278Z,95817.34
2018-11-05T13:42:48.478Z,95815.50
2018-11-05T13:45:17.429Z,95817.75
2018-11-05T13:47:46.850Z,95820.95
2018-11-05T13:50:15.735Z,95818.12
2018-11-05T13:52:44.134Z,95825.52
2018-11-05T13:55:14.227Z,95821.78
2018-11-05T13:57:44.119Z,95823.38
2018-11-05T14:00:14.538Z,95826.41
2018-11-05T14:02:43.233Z,95815.57
2018-11-05T14:05:12.370Z,95823.98
2018-11-05T14:07:41.358Z,95816.05
2018-11-05T14:10:12.557Z,95819.63
2018-11-05T14:12:41.750Z,95814.89
2018-11-05T14:15:10.420Z,95817.02
2018-11-05T14:17:39.413Z,95818.19
2018-11-05T14:20:09.292Z,95814.39
2018-11-05T14:22:37.920Z,95816.06
2018-11-05T14:25:08.024Z,95817.37
2018-11-05T14:27:36.843Z,95819.61
2018-11-05T14:30:13.295Z,95821.28
2018-11-05T14:32:43.188Z,95818.13
2018-11-05T14:35:11.875Z,95824.08
2018-11-05T14:37:40.634Z,95822.93
2018-11-05T14:40:11.069Z,95822.80
2018-11-05T14:42:39.725Z,95827.75
2018-11-05T14:45:10.630Z,95833.95
2018-11-05T14:47:39.510Z,95839.05
2018-11-05T14:50:10.202Z,95839.48
2018-11-05T14:52:38.871Z,95839.71
2018-11-05T14:55:09.421Z,95839.91
2018-11-05T14:57:38.125Z,95842.62
2018-11-05T15:00:16.620Z,95846.37
2018-11-05T15:02:45.965Z,95846.36
2018-11-05T15:05:15.246Z,95847.72
2018-11-05T15:07:44.820Z,95853.01
2018-11-05T15:10:14.641Z,95853.05
2018-11-05T15:12:43.724Z,95852.80
2018-11-05T15:15:13.265Z,95861.23
2018-11-05T15:17:42.650Z,95858.12
2018-11-05T15:20:13.351Z,95860.47
2018-11-05T15:22:42.105Z,95864.26
2018-11-05T15:25:11.110Z,95863.86
2018-11-05T15:27:39.898Z,95863.25
2018-11-05T15:30:11.023Z,95871.44
2018-11-05T15:32:40.332Z,95869.47
2018-11-05T15:35:09.171Z,95870.65
2018-11-05T15:37:38.617Z,95873.19
2018-11-05T15:40:08.124Z,95886.28
2018-11-05T15:42:36.793Z,95888.77
2018-11-05T15:45:06.786Z,95885.17
2018-11-05T15:47:35.511Z,95887.17
2018-11-05T15:50:05.574Z,95891.84
2018-11-05T15:52:34.590Z,95889.14
2018-11-05T15:55:03.019Z,95895.08
2018-11-05T15:57:31.806Z,95890.57
2018-11-05T16:00:00.443Z,95895.89
2018-11-05T16:02:29.089Z,95895.02
2018-11-05T16:04:57.754Z,95892.86
2018-11-05T16:07:26.431Z,95893.10
2018-11-05T16:09:55.112Z,95898.45
2018-11-05T16:12:23.908Z,95897.22
2018-11-05T16:14:52.564Z,95894.98
2018-11-05T16:17:21.597Z,95908.05
2018-11-05T16:19:50.235Z,95898.45
2018-11-05T16:22:18.907Z,95901.87
2018-11-05T16:24:47.551Z,95904.37
2018-11-05T16:27:16.233Z,95905.73
2018-11-05T16:29:44.890Z,95911.17
2018-11-05T16:32:13.676Z,95914.45
2018-11-05T16:34:42.555Z,95922.69
2018-11-05T16:37:11.261Z,95918.39
2018-11-05T16:39:40.418Z,95924.25
2018-11-05T16:42:08.989Z,95922.25
2018-11-05T16:44:37.683Z,95932.36
2018-11-05T16:47:06.433Z,95924.92
2018-11-05T16:49:35.082Z,95925.02
2018-11-05T16:52:03.774Z,95921.75
2018-11-05T16:54:32.505Z,95931.17
2018-11-05T16:57:01.202Z,95926.31
2018-11-05T16:59:29.885Z,95931.70
2018-11-05T17:01:58.933Z,95929.81
2018-11-05T17:04:27.253Z,95933.23
2018-11-05T17:06:55.869Z,95931.55
2018-11-05T17:09:24.534Z,95944.85
2018-11-05T17:11:53.223Z,95942.69
2018-11-05T17:14:21.874Z,95941.13
2018-11-05T17:16:50.503Z,95944.19
2018-11-05T17:19:19.189Z,95943.76
2018-11-05T17:21:47.883Z,95939.41
2018-11-05T17:24:16.514Z,95939.49
2018-11-05T17:26:45.540Z,95958.25
2018-11-05T17:29:14.530Z,95951.41
2018-11-05T17:31:45.519Z,95953.81
2018-11-05T17:34:14.149Z,95950.88
2018-11-05T17:36:42.806Z,95955.65
2018-11-05T17:39:12.861Z,95958.60
2018-11-05T17:41:41.949Z,95956.53
2018-11-05T17:44:12.366Z,95963.52
2018-11-05T17:46:41.123Z,95963.38
2018-11-05T17:49:11.898Z,95960.38
2018-11-05T17:51:40.972Z,95964.72
2018-11-05T17:54:09.650Z,95968.08
2018-11-05T17:56:38.338Z,95967.18
2018-11-05T17:59:07.138Z,95970.44
2018-11-05T18:01:35.863Z,95972.48
2018-11-05T18:04:04.725Z,95974.57
2018-11-05T18:06:33.538Z,95972.82
2018-11-05T18:09:02.368Z,95974.87
2018-11-05T18:11:31.058Z,95975.16
2018-11-05T18:13:59.770Z,95982.85
2018-11-05T18:16:28.453Z,95986.35
2018-11-05T18:18:59.142Z,95979.36
2018-11-05T18:21:28.102Z,95980.95
2018-11-05T18:23:57.238Z,95982.56
2018-11-05T18:26:25.914Z,95983.66
2018-11-05T18:28:54.530Z,95989.05
2018-11-05T18:31:23.314Z,95985.33
2018-11-05T18:33:52.026Z,95983.40
2018-11-05T18:36:20.697Z,95989.45
2018-11-05T18:38:49.406Z,95984.53
2018-11-05T18:41:18.125Z,95984.13
2018-11-05T18:43:46.792Z,95986.09
2018-11-05T18:46:15.441Z,95987.11
2018-11-05T18:48:44.111Z,95997.50
2018-11-05T18:51:12.782Z,96001.14
2018-11-05T18:53:41.541Z,95992.82
2018-11-05T18:56:10.200Z,96008.43
2018-11-05T18:58:41.101Z,95998.44
2018-11-05T19:01:09.823Z,96006.67
2018-11-05T19:03:38.547Z,96009.69
2018-11-05T19:06:07.103Z,96016.50
2018-11-05T19:08:36.427Z,96015.77
2018-11-05T19:11:06.038Z,96011.86
2018-11-05T19:13:35.770Z,96017.64
2018-11-05T19:16:05.464Z,96022.14
2018-11-05T19:18:34.216Z,96030.04
2018-11-05T19:21:02.861Z,96023.94
2018-11-05T19:23:31.509Z,96028.31
2018-11-05T19:26:00.153Z,96041.30
2018-11-05T19:28:28.812Z,96046.59
2018-11-05T19:30:57.526Z,96043.29
2018-11-05T19:33:27.105Z,96043.41
2018-11-05T19:35:55.768Z,96049.19
2018-11-05T19:38:24.403Z,96046.62
2018-11-05T19:40:53.083Z,96054.59
2018-11-05T19:43:21.744Z,96046.86
2018-11-05T19:45:50.417Z,96037.49
2018-11-05T19:48:19.070Z,96042.23
2018-11-05T19:50:47.807Z,96045.04
2018-11-05T19:53:16.413Z,96047.91
2018-11-05T19:55:46.018Z,96049.91
2018-11-05T19:58:14.673Z,96049.26
2018-11-05T20:00:43.373Z,96053.09
2018-11-05T20:03:12.038Z,96050.45
2018-11-05T20:05:40.804Z,96052.41
2018-11-05T20:08:09.471Z,96047.66
2018-11-05T20:10:38.170Z,96057.98
2018-11-05T20:13:06.907Z,96061.77
2018-11-05T20:15:35.674Z,96053.75
2018-11-05T20:18:04.397Z,96062.67
2018-11-05T20:20:33.434Z,96073.75
2018-11-05T20:23:02.176Z,96064.67
2018-11-05T20:25:30.833Z,96057.82
2018-11-05T20:27:59.484Z,96057.93
2018-11-05T20:30:28.769Z,96055.08
2018-11-05T20:32:58.488Z,96055.70
2018-11-05T20:35:26.866Z,96057.39
2018-11-05T20:37:55.552Z,96049.19
2018-11-05T20:40:24.366Z,96049.19
2018-11-05T20:42:53.639Z,96050.38
2018-11-05T20:45:23.201Z,96050.74
2018-11-05T20:47:51.881Z,96049.98
2018-11-05T20:50:20.585Z,96051.20
2018-11-05T20:52:49.233Z,96046.73
2018-11-05T20:55:18.530Z,96049.52
2018-11-05T20:57:47.335Z,96049.92
2018-11-05T21:00:17.624Z,96042.75
2018-11-05T21:02:46.280Z,96044.73
2018-11-05T21:05:14.992Z,96039.47
2018-11-05T21:07:44.021Z,96039.88
2018-11-05T21:10:13.745Z,96043.23
2018-11-05T21:12:43.125Z,96041.70
2018-11-05T21:15:22.653Z,96044.44
2018-11-05T21:17:52.345Z,96039.41
2018-11-05T21:20:21.078Z,96042.42
2018-11-05T21:22:50.528Z,96047.06
2018-11-05T21:25:19.469Z,96057.94
2018-11-05T21:27:48.161Z,96051.00
2018-11-05T21:30:19.111Z,96051.77
2018-11-05T21:32:47.886Z,96050.73
2018-11-05T21:35:18.079Z,96046.52
2018-11-05T21:37:48.644Z,96049.47
2018-11-05T21:40:18.159Z,96047.78
2018-11-05T21:42:47.494Z,96050.73
2018-11-05T21:45:16.719Z,96052.84
2018-11-05T21:47:45.886Z,96056.87
2018-11-05T21:50:16.009Z,96055.79
2018-11-05T21:52:45.176Z,96060.81
2018-11-05T21:55:13.839Z,96053.70
2018-11-05T21:57:44.629Z,96050.75
2018-11-05T22:00:17.141Z,96049.05
2018-11-05T22:02:51.064Z,96054.88
2018-11-05T22:05:19.925Z,96052.99
2018-11-05T22:07:48.895Z,96044.17
2018-11-05T22:10:17.550Z,96054.42
2018-11-05T22:12:46.721Z,96055.85
2018-11-05T22:15:15.464Z,96042.77
2018-11-05T22:17:44.117Z,96045.77
2018-11-05T22:20:13.216Z,96050.52
2018-11-05T22:22:42.281Z,96051.09
2018-11-05T22:25:11.553Z,96050.07
2018-11-05T22:27:40.608Z,96061.66
2018-11-05T22:30:11.458Z,96052.34
2018-11-05T22:32:40.069Z,96044.87
2018-11-05T22:35:08.828Z,96047.09
2018-11-05T22:37:37.763Z,96048.44
2018-11-05T22:40:08.477Z,96047.14
2018-11-05T22:42:37.149Z,96046.64
2018-11-05T22:45:05.954Z,96042.50
2018-11-05T22:47:34.577Z,96044.47
2018-11-05T22:50:03.306Z,96050.33
2018-11-05T22:52:31.968Z,96046.03
2018-11-05T22:55:00.827Z,96047.34
2018-11-05T22:57:29.506Z,96045.73
2018-11-05T22:59:58.231Z,96054.63
2018-11-05T23:02:26.852Z,96047.06
2018-11-05T23:04:55.455Z,96054.05
2018-11-05T23:07:24.057Z,96055.34
2018-11-05T23:09:52.685Z,96048.76
2018-11-05T23:12:21.321Z,96053.70
2018-11-05T23:14:49.933Z,96047.27
2018-11-05T23:17:18.602Z,96047.11
2018-11-05T23:19:47.782Z,96048.64
2018-11-05T23:22:16.431Z,96047.94
2018-11-05T23:24:45.065Z,96049.36
2018-11-05T23:27:13.666Z,96052.64
2018-11-05T23:29:42.354Z,96053.72
2018-11-05T23:32:11.096Z,95852.25
2018-11-05T23:34:39.766Z,96063.08
2018-11-05T23:37:08.354Z,96065.59
2018-11-05T23:39:36.965Z,96068.00
2018-11-05T23:42:05.657Z,96066.99
2018-11-05T23:44:34.322Z,96065.69
2018-11-05T23:47:03.008Z,96071.67
2018-11-05T23:49:31.669Z,96070.99
2018-11-05T23:52:00.585Z,96077.01
2018-11-05T23:54:29.234Z,96070.30
2018-11-05T23:56:57.802Z,96071.38
2018-11-05T23:59:26.506Z,96069.30
